createdAt,value
2023-05-21T00:00:16.381Z,17.50
2023-05-21T00:00:50.207Z,17.50
2023-05-21T00:01:23.790Z,17.50
2023-05-21T00:01:55.736Z,17.50
2023-05-21T00:02:29.996Z,17.50
2023-05-21T00:03:02.042Z,17.50
2023-05-21T00:03:35.920Z,17.50
2023-05-21T00:04:09.009Z,17.50
2023-05-21T00:04:41.130Z,17.50
2023-05-21T00:05:15.135Z,17.50
2023-05-21T00:05:50.007Z,17.50
2023-05-21T00:06:23.090Z,17.50
2023-05-21T00:06:55.089Z,17.50
2023-05-21T00:07:27.882Z,17.60
2023-05-21T00:07:59.741Z,17.60
2023-05-21T00:08:31.592Z,17.60
2023-05-21T00:09:04.703Z,17.60
2023-05-21T00:09:38.280Z,17.60
2023-05-21T00:10:10.764Z,17.80
2023-05-21T00:10:43.592Z,17.60
2023-05-21T00:11:15.458Z,17.50
2023-05-21T00:11:47.283Z,17.60
2023-05-21T00:12:19.132Z,17.60
2023-05-21T00:12:51.964Z,17.60
2023-05-21T00:13:23.822Z,17.60
2023-05-21T00:13:57.327Z,17.60
2023-05-21T00:14:30.101Z,17.60
2023-05-21T00:15:02.022Z,17.60
2023-05-21T00:15:34.025Z,17.50
2023-05-21T00:16:07.845Z,17.50
2023-05-21T00:16:39.820Z,17.50
2023-05-21T00:17:11.746Z,17.50
2023-05-21T00:17:45.955Z,17.40
2023-05-21T00:18:18.237Z,17.40
2023-05-21T00:18:50.225Z,17.40
2023-05-21T00:19:23.074Z,17.40
2023-05-21T00:19:56.675Z,17.40
2023-05-21T00:20:29.237Z,17.40
2023-05-21T00:21:02.888Z,17.40
2023-05-21T00:21:34.729Z,17.40
2023-05-21T00:22:07.081Z,17.40
2023-05-21T00:22:40.285Z,17.40
2023-05-21T00:23:12.152Z,17.40
2023-05-21T00:23:45.307Z,17.40
2023-05-21T00:24:18.137Z,17.40
2023-05-21T00:24:50.038Z,17.40
2023-05-21T00:25:21.898Z,17.40
2023-05-21T00:25:54.736Z,17.30
2023-05-21T00:26:26.597Z,17.30
2023-05-21T00:26:58.510Z,17.30
2023-05-21T00:27:31.682Z,17.30
2023-05-21T00:28:03.838Z,17.30
2023-05-21T00:28:35.687Z,17.30
2023-05-21T00:29:09.854Z,17.20
2023-05-21T00:29:44.085Z,17.20
2023-05-21T00:30:16.240Z,17.20
2023-05-21T00:30:49.560Z,17.20
2023-05-21T00:31:21.721Z,17.20
2023-05-21T00:31:53.737Z,17.20
2023-05-21T00:32:26.718Z,17.20
2023-05-21T00:32:58.931Z,17.20
2023-05-21T00:33:30.914Z,17.10
2023-05-21T00:34:04.288Z,17.10
2023-05-21T00:34:37.142Z,17.10
2023-05-21T00:35:09.587Z,17.10
2023-05-21T00:35:42.426Z,17.10
2023-05-21T00:36:14.501Z,17.10
2023-05-21T00:36:46.666Z,17.20
2023-05-21T00:37:19.509Z,17.10
2023-05-21T00:37:51.952Z,17.20
2023-05-21T00:38:24.041Z,17.20
2023-05-21T00:38:56.845Z,17.20
2023-05-21T00:39:28.733Z,17.20
2023-05-21T00:40:00.854Z,17.20
2023-05-21T00:40:34.226Z,17.10
2023-05-21T00:41:06.039Z,17.10
2023-05-21T00:41:39.968Z,17.10
2023-05-21T00:42:13.021Z,17.10
2023-05-21T00:42:47.813Z,17.10
2023-05-21T00:43:19.696Z,17.00
2023-05-21T00:43:52.878Z,17.00
2023-05-21T00:44:27.005Z,17.00
2023-05-21T00:44:58.911Z,17.00
2023-05-21T00:45:31.755Z,17.00
2023-05-21T00:46:03.658Z,17.00
2023-05-21T00:46:36.363Z,17.00
2023-05-21T00:47:09.162Z,17.00
2023-05-21T00:47:42.631Z,17.00
2023-05-21T00:48:14.801Z,17.00
2023-05-21T00:48:48.566Z,17.00
2023-05-21T00:49:22.341Z,17.00
2023-05-21T00:49:54.992Z,17.00
2023-05-21T00:50:27.817Z,17.00
2023-05-21T00:50:59.849Z,17.00
2023-05-21T00:51:32.685Z,17.00
2023-05-21T00:52:07.235Z,17.00
2023-05-21T00:52:41.770Z,17.00
2023-05-21T00:53:15.322Z,17.00
2023-05-21T00:53:52.409Z,17.00
2023-05-21T00:54:24.708Z,17.00
2023-05-21T00:54:56.620Z,17.00
2023-05-21T00:55:29.501Z,17.00
2023-05-21T00:56:02.079Z,17.00
2023-05-21T00:56:34.032Z,17.00
2023-05-21T00:57:07.625Z,17.00
2023-05-21T00:57:40.620Z,17.00
2023-05-21T00:58:12.656Z,17.00
2023-05-21T00:58:45.455Z,17.00
2023-05-21T00:59:17.680Z,17.00
2023-05-21T00:59:52.859Z,16.90
2023-05-21T01:00:26.461Z,16.90
2023-05-21T01:00:58.743Z,16.90
2023-05-21T01:01:34.059Z,16.90
2023-05-21T01:02:06.903Z,16.90
2023-05-21T01:02:40.005Z,17.00
2023-05-21T01:03:12.800Z,16.90
2023-05-21T01:03:44.884Z,16.90
2023-05-21T01:04:17.716Z,16.90
2023-05-21T01:04:49.923Z,17.00
2023-05-21T01:05:22.201Z,16.90
2023-05-21T01:05:59.822Z,16.90
2023-05-21T01:06:34.607Z,16.90
2023-05-21T01:07:06.506Z,17.00
2023-05-21T01:07:42.420Z,16.90
2023-05-21T01:08:14.911Z,16.90
2023-05-21T01:08:47.052Z,16.90
2023-05-21T01:09:20.218Z,16.90
2023-05-21T01:09:54.102Z,16.90
2023-05-21T01:10:27.165Z,16.90
2023-05-21T01:11:00.610Z,16.80
2023-05-21T01:11:38.886Z,16.80
2023-05-21T01:12:12.349Z,16.80
2023-05-21T01:12:46.449Z,16.80
2023-05-21T01:13:18.629Z,16.80
2023-05-21T01:13:50.993Z,16.80
2023-05-21T01:14:24.061Z,16.80
2023-05-21T01:14:59.246Z,16.80
2023-05-21T01:15:31.251Z,16.80
2023-05-21T01:16:06.470Z,16.80
2023-05-21T01:16:41.563Z,16.80
2023-05-21T01:17:14.634Z,16.80
2023-05-21T01:17:48.686Z,16.70
2023-05-21T01:18:21.706Z,16.80
2023-05-21T01:18:53.779Z,16.80
2023-05-21T01:19:26.122Z,16.80
2023-05-21T01:19:59.599Z,16.80
2023-05-21T01:20:31.982Z,16.80
2023-05-21T01:21:04.470Z,16.80
2023-05-21T01:21:42.239Z,16.80
2023-05-21T01:22:14.565Z,16.80
2023-05-21T01:22:55.818Z,16.80
2023-05-21T01:23:27.888Z,16.80
2023-05-21T01:23:59.761Z,16.80
2023-05-21T01:24:32.660Z,16.80
2023-05-21T01:25:04.952Z,16.80
2023-05-21T01:25:38.054Z,16.80
2023-05-21T01:26:12.867Z,16.70
2023-05-21T01:26:46.518Z,16.70
2023-05-21T01:27:19.321Z,16.70
2023-05-21T01:27:51.633Z,16.70
2023-05-21T01:28:23.487Z,16.70
2023-05-21T01:28:56.275Z,16.70
2023-05-21T01:29:28.148Z,16.70
2023-05-21T01:30:00.014Z,16.60
2023-05-21T01:30:32.847Z,16.70
2023-05-21T01:31:13.337Z,16.70
2023-05-21T01:32:00.222Z,16.70
2023-05-21T01:32:39.372Z,16.70
2023-05-21T01:33:17.317Z,16.70
2023-05-21T01:33:51.984Z,16.70
2023-05-21T01:34:31.297Z,16.70
2023-05-21T01:35:08.140Z,16.70
2023-05-21T01:35:44.435Z,16.70
2023-05-21T01:36:24.055Z,16.70
2023-05-21T01:37:01.688Z,16.70
2023-05-21T01:37:38.970Z,16.70
2023-05-21T01:38:19.899Z,16.70
2023-05-21T01:39:01.878Z,16.70
2023-05-21T01:39:38.562Z,16.70
2023-05-21T01:40:14.729Z,16.70
2023-05-21T01:40:54.210Z,16.70
2023-05-21T01:41:27.716Z,16.70
2023-05-21T01:42:02.134Z,16.70
2023-05-21T01:42:37.067Z,16.70
2023-05-21T01:43:10.325Z,16.60
2023-05-21T01:43:45.233Z,16.60
2023-05-21T01:44:19.763Z,16.60
2023-05-21T01:44:54.962Z,16.60
2023-05-21T01:45:29.034Z,16.80
2023-05-21T01:46:02.835Z,16.70
2023-05-21T01:46:36.076Z,16.60
2023-05-21T01:47:08.731Z,16.60
2023-05-21T01:47:42.856Z,16.60
2023-05-21T01:48:17.356Z,16.60
2023-05-21T01:48:51.077Z,16.60
2023-05-21T01:49:24.365Z,16.70
2023-05-21T01:49:57.071Z,16.70
2023-05-21T01:50:29.954Z,16.70
2023-05-21T01:51:03.957Z,16.70
2023-05-21T01:51:37.371Z,16.70
2023-05-21T01:52:09.424Z,16.70
2023-05-21T01:52:49.100Z,16.70
2023-05-21T01:53:23.558Z,16.70
2023-05-21T01:53:55.385Z,16.70
2023-05-21T01:54:27.196Z,16.70
2023-05-21T01:55:00.270Z,16.70
2023-05-21T01:55:32.444Z,16.70
2023-05-21T01:56:04.797Z,16.70
2023-05-21T01:56:36.889Z,16.70
2023-05-21T01:57:09.703Z,16.70
2023-05-21T01:57:41.516Z,16.70
2023-05-21T01:58:13.455Z,16.70
2023-05-21T01:58:45.356Z,16.70
2023-05-21T01:59:18.610Z,16.70
2023-05-21T01:59:53.238Z,16.70
2023-05-21T02:00:28.200Z,16.70
2023-05-21T02:01:01.055Z,16.60
2023-05-21T02:01:32.934Z,16.60
2023-05-21T02:02:05.221Z,16.60
2023-05-21T02:02:38.098Z,16.70
2023-05-21T02:03:10.110Z,16.70
2023-05-21T02:03:42.400Z,16.70
2023-05-21T02:04:15.252Z,16.70
2023-05-21T02:04:47.759Z,16.70
2023-05-21T02:05:19.726Z,16.70
2023-05-21T02:05:51.989Z,16.70
2023-05-21T02:06:25.162Z,16.70
2023-05-21T02:06:57.046Z,16.70
2023-05-21T02:07:29.006Z,16.70
2023-05-21T02:08:02.464Z,16.70
2023-05-21T02:08:35.686Z,16.60
2023-05-21T02:09:08.037Z,16.60
2023-05-21T02:09:41.205Z,16.60
2023-05-21T02:10:13.539Z,16.70
2023-05-21T02:10:45.940Z,16.70
2023-05-21T02:11:18.873Z,16.70
2023-05-21T02:11:50.721Z,16.60
2023-05-21T02:12:22.584Z,16.60
2023-05-21T02:12:55.388Z,16.60
2023-05-21T02:13:29.055Z,16.70
2023-05-21T02:14:00.911Z,16.60
2023-05-21T02:14:34.612Z,16.60
2023-05-21T02:15:07.461Z,16.60
2023-05-21T02:15:40.155Z,16.60
2023-05-21T02:16:14.975Z,16.60
2023-05-21T02:16:47.104Z,16.60
2023-05-21T02:17:18.959Z,16.50
2023-05-21T02:17:53.020Z,16.50
2023-05-21T02:18:26.259Z,16.50
2023-05-21T02:19:00.383Z,16.50
2023-05-21T02:19:33.282Z,16.50
2023-05-21T02:20:11.386Z,16.50
2023-05-21T02:20:43.246Z,16.50
2023-05-21T02:21:16.105Z,16.60
2023-05-21T02:21:48.043Z,16.60
2023-05-21T02:22:19.881Z,16.60
2023-05-21T02:22:52.762Z,16.60
2023-05-21T02:23:24.639Z,16.60
2023-05-21T02:23:58.112Z,16.60
2023-05-21T02:24:31.300Z,16.50
2023-05-21T02:25:03.958Z,16.50
2023-05-21T02:25:36.170Z,16.50
2023-05-21T02:26:09.164Z,16.50
2023-05-21T02:26:41.066Z,16.50
2023-05-21T02:27:13.611Z,16.50
2023-05-21T02:27:46.790Z,16.50
2023-05-21T02:28:18.643Z,16.50
2023-05-21T02:28:52.861Z,16.50
2023-05-21T02:29:25.680Z,16.40
2023-05-21T02:29:57.491Z,16.50
2023-05-21T02:30:29.504Z,16.40
2023-05-21T02:31:01.393Z,16.40
2023-05-21T02:31:34.175Z,16.40
2023-05-21T02:32:06.816Z,16.40
2023-05-21T02:32:42.413Z,16.40
2023-05-21T02:33:16.834Z,16.50
2023-05-21T02:33:48.729Z,16.40
2023-05-21T02:34:20.823Z,16.30
2023-05-21T02:34:53.097Z,16.30
2023-05-21T02:35:26.009Z,16.30
2023-05-21T02:35:57.906Z,16.30
2023-05-21T02:36:33.155Z,16.30
2023-05-21T02:37:06.645Z,16.30
2023-05-21T02:37:40.390Z,16.30
2023-05-21T02:38:13.537Z,16.30
2023-05-21T02:38:46.561Z,16.30
2023-05-21T02:39:20.086Z,16.30
2023-05-21T02:39:51.907Z,16.30
2023-05-21T02:40:25.101Z,16.20
2023-05-21T02:40:56.909Z,16.30
2023-05-21T02:41:28.788Z,16.20
2023-05-21T02:42:01.624Z,16.10
2023-05-21T02:42:34.072Z,16.10
2023-05-21T02:43:06.077Z,16.20
2023-05-21T02:43:37.951Z,16.10
2023-05-21T02:44:10.914Z,16.10
2023-05-21T02:44:42.734Z,16.10
2023-05-21T02:45:14.601Z,16.10
2023-05-21T02:45:47.655Z,16.10
2023-05-21T02:46:19.642Z,16.10
2023-05-21T02:46:51.494Z,16.10
2023-05-21T02:47:25.358Z,16.10
2023-05-21T02:47:57.255Z,16.10
2023-05-21T02:48:29.147Z,16.10
2023-05-21T02:49:02.005Z,16.00
2023-05-21T02:49:33.931Z,16.00
2023-05-21T02:50:07.630Z,16.10
2023-05-21T02:50:40.449Z,16.10
2023-05-21T02:51:12.306Z,16.10
2023-05-21T02:51:44.151Z,16.10
2023-05-21T02:52:18.415Z,16.10
2023-05-21T02:52:50.445Z,16.10
2023-05-21T02:53:22.285Z,16.20
2023-05-21T02:53:55.126Z,16.20
2023-05-21T02:54:28.292Z,16.20
2023-05-21T02:55:00.165Z,16.10
2023-05-21T02:55:33.023Z,16.10
2023-05-21T02:56:05.710Z,16.10
2023-05-21T02:56:37.551Z,16.10
2023-05-21T02:57:10.358Z,16.20
2023-05-21T02:57:42.186Z,16.20
2023-05-21T02:58:14.941Z,16.20
2023-05-21T02:58:47.734Z,16.20
2023-05-21T02:59:19.616Z,16.10
2023-05-21T02:59:51.456Z,16.10
2023-05-21T03:00:23.260Z,16.10
2023-05-21T03:00:56.069Z,16.10
2023-05-21T03:01:28.026Z,16.10
2023-05-21T03:01:59.896Z,16.10
2023-05-21T03:02:32.882Z,16.10
2023-05-21T03:03:04.984Z,16.10
2023-05-21T03:03:37.057Z,16.10
2023-05-21T03:04:09.922Z,16.10
2023-05-21T03:04:45.932Z,16.10
2023-05-21T03:05:17.974Z,16.00
2023-05-21T03:05:50.785Z,16.00
2023-05-21T03:06:22.593Z,16.00
2023-05-21T03:06:55.276Z,16.00
2023-05-21T03:07:28.149Z,16.00
2023-05-21T03:07:59.981Z,15.90
2023-05-21T03:08:32.138Z,15.90
2023-05-21T03:09:05.895Z,15.90
2023-05-21T03:09:39.174Z,15.90
2023-05-21T03:10:11.283Z,15.90
2023-05-21T03:10:44.250Z,15.90
2023-05-21T03:11:16.127Z,15.90
2023-05-21T03:11:47.977Z,15.90
2023-05-21T03:12:20.868Z,15.80
2023-05-21T03:12:54.670Z,15.80
2023-05-21T03:13:26.590Z,15.80
2023-05-21T03:13:59.428Z,15.80
2023-05-21T03:14:31.328Z,15.80
2023-05-21T03:15:03.521Z,15.80
2023-05-21T03:15:36.500Z,15.80
2023-05-21T03:16:08.641Z,15.80
2023-05-21T03:16:41.747Z,15.80
2023-05-21T03:17:15.091Z,15.80
2023-05-21T03:17:48.216Z,15.80
2023-05-21T03:18:21.030Z,15.80
2023-05-21T03:18:52.945Z,15.80
2023-05-21T03:19:25.109Z,15.80
2023-05-21T03:19:57.165Z,15.80
2023-05-21T03:20:30.123Z,15.80
2023-05-21T03:21:01.990Z,15.80
2023-05-21T03:21:33.884Z,15.80
2023-05-21T03:22:07.209Z,15.80
2023-05-21T03:22:39.008Z,15.80
2023-05-21T03:23:14.235Z,15.80
2023-05-21T03:23:49.175Z,15.80
2023-05-21T03:24:21.014Z,15.80
2023-05-21T03:24:54.195Z,15.70
2023-05-21T03:25:27.000Z,15.70
2023-05-21T03:25:58.869Z,15.70
2023-05-21T03:26:30.711Z,15.70
2023-05-21T03:27:05.818Z,15.70
2023-05-21T03:27:38.182Z,15.70
2023-05-21T03:28:10.992Z,15.70
2023-05-21T03:28:42.834Z,15.70
2023-05-21T03:29:14.663Z,15.70
2023-05-21T03:29:47.581Z,15.70
2023-05-21T03:30:19.442Z,15.70
2023-05-21T03:30:51.985Z,15.70
2023-05-21T03:31:25.402Z,15.70
2023-05-21T03:31:57.708Z,15.70
2023-05-21T03:32:29.628Z,15.70
2023-05-21T03:33:03.304Z,15.70
2023-05-21T03:33:36.265Z,15.70
2023-05-21T03:34:09.024Z,15.70
2023-05-21T03:34:41.057Z,15.70
2023-05-21T03:35:13.960Z,15.70
2023-05-21T03:35:45.792Z,15.70
2023-05-21T03:36:18.613Z,15.70
2023-05-21T03:36:51.046Z,15.70
2023-05-21T03:37:23.059Z,15.70
2023-05-21T03:37:55.951Z,15.60
2023-05-21T03:38:27.744Z,15.60
2023-05-21T03:38:59.566Z,15.60
2023-05-21T03:39:32.347Z,15.60
2023-05-21T03:40:07.030Z,15.60
2023-05-21T03:40:38.843Z,15.60
2023-05-21T03:41:11.998Z,15.60
2023-05-21T03:41:43.834Z,15.60
2023-05-21T03:42:15.647Z,15.60
2023-05-21T03:42:48.503Z,15.60
2023-05-21T03:43:20.310Z,15.60
2023-05-21T03:43:52.114Z,15.60
2023-05-21T03:44:24.922Z,15.60
2023-05-21T03:44:56.766Z,15.60
2023-05-21T03:45:28.670Z,15.60
2023-05-21T03:46:01.559Z,15.60
2023-05-21T03:46:33.610Z,15.50
2023-05-21T03:47:05.842Z,15.50
2023-05-21T03:47:38.705Z,15.50
2023-05-21T03:48:11.095Z,15.50
2023-05-21T03:48:42.932Z,15.60
2023-05-21T03:49:15.813Z,15.50
2023-05-21T03:49:47.637Z,15.50
2023-05-21T03:50:19.447Z,15.50
2023-05-21T03:50:51.378Z,15.60
2023-05-21T03:51:24.633Z,15.60
2023-05-21T03:51:56.509Z,15.60
2023-05-21T03:52:28.325Z,15.60
2023-05-21T03:53:01.937Z,15.60
2023-05-21T03:53:34.273Z,15.60
2023-05-21T03:54:06.195Z,15.60
2023-05-21T03:54:38.971Z,15.50
2023-05-21T03:55:12.476Z,15.50
2023-05-21T03:55:44.307Z,15.50
2023-05-21T03:56:17.334Z,15.50
2023-05-21T03:56:49.173Z,15.50
2023-05-21T03:57:21.037Z,15.50
2023-05-21T03:57:53.845Z,15.60
2023-05-21T03:58:26.721Z,15.60
2023-05-21T03:58:58.589Z,15.60
2023-05-21T03:59:30.454Z,15.60
2023-05-21T04:00:04.946Z,15.60
2023-05-21T04:00:37.373Z,15.60
2023-05-21T04:01:09.308Z,15.70
2023-05-21T04:01:42.629Z,15.70
2023-05-21T04:02:14.480Z,15.60
2023-05-21T04:02:46.929Z,15.60
2023-05-21T04:03:19.980Z,15.70
2023-05-21T04:03:52.191Z,15.70
2023-05-21T04:04:24.417Z,15.60
2023-05-21T04:04:57.287Z,15.70
2023-05-21T04:05:29.219Z,15.70
2023-05-21T04:06:01.482Z,15.70
2023-05-21T04:06:33.311Z,15.70
2023-05-21T04:07:10.223Z,15.70
2023-05-21T04:07:42.868Z,15.70
2023-05-21T04:08:14.928Z,15.70
2023-05-21T04:08:48.026Z,15.70
2023-05-21T04:09:19.863Z,15.80
2023-05-21T04:09:51.666Z,15.70
2023-05-21T04:10:25.892Z,15.80
2023-05-21T04:10:57.762Z,15.80
2023-05-21T04:11:29.599Z,15.80
2023-05-21T04:12:03.014Z,15.70
2023-05-21T04:12:34.902Z,15.70
2023-05-21T04:13:06.731Z,15.70
2023-05-21T04:13:39.809Z,15.70
2023-05-21T04:14:11.624Z,15.70
2023-05-21T04:14:43.434Z,15.80
2023-05-21T04:15:18.662Z,15.70
2023-05-21T04:15:50.725Z,15.80
2023-05-21T04:16:24.524Z,15.80
2023-05-21T04:16:57.670Z,15.80
2023-05-21T04:17:29.714Z,15.80
2023-05-21T04:18:01.615Z,15.80
2023-05-21T04:18:34.842Z,15.80
2023-05-21T04:19:06.994Z,15.80
2023-05-21T04:19:39.075Z,15.80
2023-05-21T04:20:13.572Z,15.80
2023-05-21T04:20:45.391Z,15.80
2023-05-21T04:21:17.227Z,15.80
2023-05-21T04:21:50.040Z,15.80
2023-05-21T04:22:23.305Z,15.80
2023-05-21T04:22:55.157Z,15.80
2023-05-21T04:23:28.017Z,15.90
2023-05-21T04:24:00.682Z,15.80
2023-05-21T04:24:32.709Z,15.90
2023-05-21T04:25:06.087Z,15.80
2023-05-21T04:25:39.275Z,15.80
2023-05-21T04:26:12.607Z,15.90
2023-05-21T04:26:45.407Z,15.90
2023-05-21T04:27:17.267Z,15.90
2023-05-21T04:27:50.008Z,15.90
2023-05-21T04:28:24.146Z,15.90
2023-05-21T04:28:56.010Z,15.90
2023-05-21T04:29:27.966Z,15.90
2023-05-21T04:30:00.735Z,16.00
2023-05-21T04:30:35.499Z,15.90
2023-05-21T04:31:08.520Z,15.90
2023-05-21T04:31:41.422Z,15.90
2023-05-21T04:32:15.117Z,15.90
2023-05-21T04:32:48.086Z,16.00
2023-05-21T04:33:20.956Z,16.00
2023-05-21T04:33:52.822Z,15.90
2023-05-21T04:34:24.777Z,16.00
2023-05-21T04:34:57.767Z,16.00
2023-05-21T04:35:29.640Z,16.00
2023-05-21T04:36:01.890Z,16.00
2023-05-21T04:36:34.676Z,16.00
2023-05-21T04:37:06.897Z,15.90
2023-05-21T04:37:42.054Z,15.90
2023-05-21T04:38:19.590Z,15.90
2023-05-21T04:38:51.451Z,15.90
2023-05-21T04:39:23.306Z,15.90
2023-05-21T04:39:56.201Z,15.90
2023-05-21T04:40:28.018Z,15.90
2023-05-21T04:41:03.788Z,15.90
2023-05-21T04:41:36.964Z,15.90
2023-05-21T04:42:10.692Z,15.90
2023-05-21T04:42:42.492Z,15.80
2023-05-21T04:43:17.098Z,15.80
2023-05-21T04:43:49.094Z,15.80
2023-05-21T04:44:20.935Z,15.90
2023-05-21T04:44:55.426Z,15.90
2023-05-21T04:45:29.348Z,15.90
2023-05-21T04:46:01.338Z,15.90
2023-05-21T04:46:34.803Z,15.90
2023-05-21T04:47:07.802Z,15.90
2023-05-21T04:47:39.799Z,15.90
2023-05-21T04:48:12.575Z,15.90
2023-05-21T04:48:46.709Z,15.90
2023-05-21T04:49:18.563Z,15.90
2023-05-21T04:49:50.851Z,16.00
2023-05-21T04:50:23.656Z,15.90
2023-05-21T04:50:56.072Z,15.90
2023-05-21T04:51:27.938Z,16.00
2023-05-21T04:52:00.742Z,16.00
2023-05-21T04:52:34.619Z,16.00
2023-05-21T04:53:06.482Z,16.00
2023-05-21T04:53:39.295Z,16.00
2023-05-21T04:54:11.349Z,16.10
2023-05-21T04:54:45.715Z,16.00
2023-05-21T04:55:19.020Z,16.10
2023-05-21T04:55:50.905Z,16.10
2023-05-21T04:56:26.697Z,16.10
2023-05-21T04:56:59.507Z,16.10
2023-05-21T04:57:31.361Z,16.10
2023-05-21T04:58:03.171Z,16.00
2023-05-21T04:58:35.963Z,16.00
2023-05-21T04:59:07.833Z,16.10
2023-05-21T04:59:40.021Z,16.10
2023-05-21T05:00:14.187Z,16.10
2023-05-21T05:00:46.913Z,16.10
2023-05-21T05:01:19.262Z,16.10
2023-05-21T05:01:52.616Z,16.10
2023-05-21T05:02:24.557Z,16.20
2023-05-21T05:02:56.470Z,16.20
2023-05-21T05:03:29.693Z,16.20
2023-05-21T05:04:01.640Z,16.20
2023-05-21T05:04:33.918Z,16.20
2023-05-21T05:05:07.384Z,16.30
2023-05-21T05:05:39.714Z,16.30
2023-05-21T05:06:11.786Z,16.30
2023-05-21T05:06:44.554Z,16.40
2023-05-21T05:07:16.849Z,16.40
2023-05-21T05:07:48.671Z,16.30
2023-05-21T05:08:20.479Z,16.40
2023-05-21T05:08:53.321Z,16.40
2023-05-21T05:09:25.295Z,16.40
2023-05-21T05:09:57.165Z,16.40
2023-05-21T05:10:29.029Z,16.40
2023-05-21T05:11:01.862Z,16.40
2023-05-21T05:11:35.027Z,16.50
2023-05-21T05:12:07.628Z,16.50
2023-05-21T05:12:40.485Z,16.50
2023-05-21T05:13:12.539Z,16.50
2023-05-21T05:13:44.484Z,16.50
2023-05-21T05:14:17.350Z,16.50
2023-05-21T05:14:49.181Z,16.50
2023-05-21T05:15:21.101Z,16.60
2023-05-21T05:15:54.739Z,16.60
2023-05-21T05:16:27.812Z,16.60
2023-05-21T05:17:00.137Z,16.60
2023-05-21T05:17:34.301Z,16.60
2023-05-21T05:18:08.496Z,16.60
2023-05-21T05:18:40.557Z,16.60
2023-05-21T05:19:13.432Z,16.60
2023-05-21T05:19:45.434Z,16.60
2023-05-21T05:20:17.312Z,16.60
2023-05-21T05:20:50.122Z,16.60
2023-05-21T05:21:23.516Z,16.60
2023-05-21T05:21:55.586Z,16.70
2023-05-21T05:22:28.407Z,16.60
2023-05-21T05:23:00.720Z,16.70
2023-05-21T05:23:32.560Z,16.70
2023-05-21T05:24:05.976Z,16.70
2023-05-21T05:24:37.821Z,16.70
2023-05-21T05:25:09.918Z,16.70
2023-05-21T05:25:42.774Z,16.80
2023-05-21T05:26:14.613Z,16.70
2023-05-21T05:26:48.053Z,16.70
2023-05-21T05:27:20.922Z,16.70
2023-05-21T05:27:52.757Z,16.70
2023-05-21T05:28:24.635Z,16.70
2023-05-21T05:28:57.478Z,16.60
2023-05-21T05:29:29.380Z,16.60
2023-05-21T05:30:01.213Z,16.70
2023-05-21T05:30:34.113Z,16.60
2023-05-21T05:31:06.868Z,16.60
2023-05-21T05:31:38.791Z,16.60
2023-05-21T05:32:11.590Z,16.70
2023-05-21T05:32:43.477Z,16.70
2023-05-21T05:33:15.448Z,16.60
2023-05-21T05:33:48.969Z,16.60
2023-05-21T05:34:21.487Z,16.60
2023-05-21T05:34:53.325Z,16.60
2023-05-21T05:35:26.161Z,16.60
2023-05-21T05:35:58.105Z,16.70
2023-05-21T05:36:30.090Z,16.70
2023-05-21T05:37:04.187Z,16.70
2023-05-21T05:37:36.142Z,16.70
2023-05-21T05:38:08.927Z,16.70
2023-05-21T05:38:41.799Z,16.70
2023-05-21T05:39:13.914Z,16.80
2023-05-21T05:39:45.777Z,16.80
2023-05-21T05:40:18.716Z,16.80
2023-05-21T05:40:50.584Z,16.80
2023-05-21T05:41:22.759Z,16.80
2023-05-21T05:41:56.986Z,16.90
2023-05-21T05:42:28.856Z,16.90
2023-05-21T05:43:00.757Z,16.90
2023-05-21T05:43:33.584Z,16.90
2023-05-21T05:44:05.745Z,16.90
2023-05-21T05:44:38.586Z,16.90
2023-05-21T05:45:11.632Z,16.90
2023-05-21T05:45:43.504Z,16.90
2023-05-21T05:46:16.978Z,16.90
2023-05-21T05:46:48.833Z,16.90
2023-05-21T05:47:21.693Z,16.90
2023-05-21T05:47:54.572Z,16.90
2023-05-21T05:48:26.457Z,16.90
2023-05-21T05:48:59.250Z,16.90
2023-05-21T05:49:31.127Z,16.90
2023-05-21T05:50:03.106Z,17.10
2023-05-21T05:50:35.950Z,16.90
2023-05-21T05:51:07.804Z,16.90
2023-05-21T05:51:40.177Z,16.90
2023-05-21T05:52:12.984Z,16.90
2023-05-21T05:52:44.825Z,16.90
2023-05-21T05:53:16.664Z,17.00
2023-05-21T05:53:49.441Z,16.90
2023-05-21T05:54:21.321Z,16.90
2023-05-21T05:54:53.146Z,16.90
2023-05-21T05:55:26.656Z,16.90
2023-05-21T05:55:59.700Z,17.00
2023-05-21T05:56:31.521Z,17.00
2023-05-21T05:57:06.189Z,17.00
2023-05-21T05:57:38.084Z,17.00
2023-05-21T05:58:09.934Z,17.00
2023-05-21T05:58:42.714Z,17.00
2023-05-21T05:59:14.568Z,17.00
2023-05-21T05:59:46.393Z,17.00
2023-05-21T06:00:19.816Z,17.00
2023-05-21T06:00:52.310Z,17.00
2023-05-21T06:01:24.654Z,17.00
2023-05-21T06:01:57.461Z,17.00
2023-05-21T06:02:29.426Z,17.00
2023-05-21T06:03:01.808Z,17.00
2023-05-21T06:03:34.848Z,17.00
2023-05-21T06:04:06.890Z,17.10
2023-05-21T06:04:38.722Z,17.00
2023-05-21T06:05:11.886Z,17.00
2023-05-21T06:05:44.002Z,17.00
2023-05-21T06:06:17.172Z,17.10
2023-05-21T06:06:49.110Z,17.00
2023-05-21T06:07:20.962Z,17.00
2023-05-21T06:07:53.781Z,17.00
2023-05-21T06:08:25.601Z,17.00
2023-05-21T06:08:57.455Z,17.10
2023-05-21T06:09:30.301Z,17.10
2023-05-21T06:10:02.189Z,17.00
2023-05-21T06:10:34.111Z,17.00
2023-05-21T06:11:06.969Z,17.00
2023-05-21T06:11:39.012Z,17.10
2023-05-21T06:12:15.794Z,17.10
2023-05-21T06:12:48.818Z,17.10
2023-05-21T06:13:20.704Z,17.10
2023-05-21T06:13:52.619Z,17.10
2023-05-21T06:14:25.403Z,17.10
2023-05-21T06:14:57.238Z,17.10
2023-05-21T06:15:29.172Z,17.20
2023-05-21T06:16:02.253Z,17.20
2023-05-21T06:16:34.340Z,17.20
2023-05-21T06:17:06.302Z,17.20
2023-05-21T06:17:39.174Z,17.20
2023-05-21T06:18:11.538Z,17.40
2023-05-21T06:18:43.665Z,17.20
2023-05-21T06:19:16.517Z,17.20
2023-05-21T06:19:48.362Z,17.20
2023-05-21T06:20:20.205Z,17.20
2023-05-21T06:20:53.064Z,17.20
2023-05-21T06:21:24.906Z,17.20
2023-05-21T06:21:56.819Z,17.20
2023-05-21T06:22:29.601Z,17.20
2023-05-21T06:23:01.466Z,17.20
2023-05-21T06:23:36.456Z,17.20
2023-05-21T06:24:08.481Z,17.20
2023-05-21T06:24:41.323Z,17.30
2023-05-21T06:25:13.180Z,17.30
2023-05-21T06:25:45.310Z,17.40
2023-05-21T06:26:19.018Z,17.30
2023-05-21T06:26:51.283Z,17.40
2023-05-21T06:27:24.437Z,17.40
2023-05-21T06:27:57.819Z,17.40
2023-05-21T06:28:29.622Z,17.40
2023-05-21T06:29:02.294Z,17.40
2023-05-21T06:29:35.131Z,17.50
2023-05-21T06:30:08.482Z,17.50
2023-05-21T06:30:40.327Z,17.60
2023-05-21T06:31:12.202Z,17.60
2023-05-21T06:31:45.056Z,17.60
2023-05-21T06:32:17.133Z,17.60
2023-05-21T06:32:49.077Z,17.70
2023-05-21T06:33:23.195Z,17.60
2023-05-21T06:33:55.350Z,17.60
2023-05-21T06:34:28.562Z,17.70
2023-05-21T06:35:01.488Z,17.60
2023-05-21T06:35:37.020Z,17.70
2023-05-21T06:36:09.357Z,17.70
2023-05-21T06:36:42.212Z,17.70
2023-05-21T06:37:14.097Z,17.70
2023-05-21T06:37:46.122Z,17.80
2023-05-21T06:38:18.917Z,17.70
2023-05-21T06:38:50.823Z,17.80
2023-05-21T06:39:24.494Z,17.70
2023-05-21T06:39:56.326Z,17.80
2023-05-21T06:40:28.203Z,17.80
2023-05-21T06:41:01.303Z,17.80
2023-05-21T06:41:33.134Z,17.80
2023-05-21T06:42:05.476Z,17.90
2023-05-21T06:42:39.587Z,17.90
2023-05-21T06:43:11.496Z,17.90
2023-05-21T06:43:43.358Z,18.00
2023-05-21T06:44:16.602Z,18.00
2023-05-21T06:44:48.436Z,18.00
2023-05-21T06:45:21.420Z,18.10
2023-05-21T06:45:53.306Z,18.10
2023-05-21T06:46:25.290Z,18.10
2023-05-21T06:46:58.118Z,18.20
2023-05-21T06:47:30.015Z,18.20
2023-05-21T06:48:02.910Z,18.20
2023-05-21T06:48:34.783Z,18.30
2023-05-21T06:49:07.065Z,18.30
2023-05-21T06:49:40.016Z,18.40
2023-05-21T06:50:11.868Z,18.40
2023-05-21T06:50:44.206Z,18.40
2023-05-21T06:51:17.003Z,18.50
2023-05-21T06:51:48.850Z,18.50
2023-05-21T06:52:20.921Z,18.70
2023-05-21T06:52:53.698Z,18.60
2023-05-21T06:53:25.527Z,18.70
2023-05-21T06:53:57.351Z,18.70
2023-05-21T06:54:30.161Z,18.70
2023-05-21T06:55:02.003Z,18.80
2023-05-21T06:55:34.006Z,18.80
2023-05-21T06:56:07.048Z,18.90
2023-05-21T06:56:38.879Z,18.90
2023-05-21T06:57:10.679Z,18.90
2023-05-21T06:57:44.833Z,18.90
2023-05-21T06:58:16.687Z,18.90
2023-05-21T06:58:48.592Z,18.90
2023-05-21T06:59:21.413Z,18.80
2023-05-21T06:59:53.233Z,18.80
2023-05-21T07:00:25.348Z,18.80
2023-05-21T07:00:58.236Z,18.70
2023-05-21T07:01:30.654Z,18.70
2023-05-21T07:02:04.458Z,18.70
2023-05-21T07:02:37.648Z,18.70
2023-05-21T07:03:09.591Z,18.70